Latest Weather Observations for Perth Airport

IDW60801

Issued at 11:13 pm WST Wednesday 8 July 2020 (issued every 10 minutes, with the page automatically refreshed every 10 minutes)

About weather observations | Map of weather stations | Latest weather observations for WA | Other Formats
Station Details ID: 009021 Name: PERTH AIRPORT Lat: -31.93 Lon: 115.98 Height: 15.4 m
Data from the previous 72 hours. | See also: Recent months at Perth Airport
Date/Time
WST
Temp
°C
App
Temp
°C
Dew
Point
°C
Rel
Hum
%
Delta-T
°C
Wind Press
QNH
hPa
Press
MSL
hPa
Rain since
9am
mm
Dir  Spd
km/h
Gust
km/h
Spd
kts
Gust
kts
08/11:00pm 6.9 6.0 6.2 95 0.3 CALM 0 0 0 0 1024.5 1024.5 0.2
08/10:30pm 7.1 6.2 6.2 94 0.4 CALM 0 0 0 0 1024.3 1024.3 0.2
08/10:00pm 7.6 6.8 6.7 94 0.4 CALM 0 0 0 0 1024.3 1024.3 0.2
08/09:30pm 8.0 7.3 7.1 94 0.4 CALM 0 0 0 0 1024.2 1024.2 0.2
08/09:00pm 8.2 5.8 7.1 93 0.5 NE 9 11 5 6 1024.0 1024.0 0.2
08/08:30pm 8.5 6.5 7.1 91 0.7 NE 7 9 4 5 1023.9 1023.9 0.2
08/08:00pm 9.6 6.9 7.4 86 1.0 S 11 13 6 7 1023.8 1023.8 0.2
08/07:30pm 11.3 8.6 9.0 86 1.1 S 13 15 7 8 1023.7 1023.7 0.2
08/07:00pm 10.4 8.0 8.5 88 0.9 SSW 11 15 6 8 1023.5 1023.5 0.2
08/06:30pm 10.6 8.9 8.4 86 1.1 SW 7 9 4 5 1023.4 1023.4 0.2
08/06:00pm 11.7 10.1 8.7 82 1.5 S 7 9 4 5 1023.1 1023.1 0.2
08/05:30pm 13.6 11.5 8.4 71 2.6 SSW 9 13 5 7 1023.0 1023.0 0.2
08/05:00pm 14.9 12.5 8.6 66 3.2 SSW 11 13 6 7 1023.0 1023.0 0.2
08/04:30pm 15.1 12.3 10.1 72 2.6 SSW 15 19 8 10 1023.0 1023.0 0.2
08/04:00pm 15.1 12.9 9.5 69 2.9 S 11 15 6 8 1022.8 1022.8 0.2
08/03:30pm 15.3 13.2 9.7 69 2.9 SSE 11 13 6 7 1022.7 1022.7 0.2
08/03:00pm 15.3 14.0 9.9 70 2.8 ESE 7 13 4 7 1022.7 1022.7 0.2
08/02:30pm 14.8 13.1 10.0 73 2.5 SE 9 11 5 6 1022.8 1022.8 0.2
08/02:00pm 14.1 13.1 11.1 82 1.6 ENE 7 9 4 5 1023.0 1023.0 0.2
08/01:46pm 13.8 13.0 11.0 83 1.5 ENE 6 9 3 5 1023.1 1023.1 0.2
08/01:30pm 13.5 11.0 10.9 84 1.4 SSW 15 20 8 11 1023.4 1023.4 0.2
08/01:21pm 14.0 10.6 11.2 83 1.5 SSW 20 26 11 14 1023.5 1023.5 0.2
08/01:00pm 14.4 11.0 10.4 77 2.1 SSW 19 24 10 13 1023.5 1023.5 0.2
08/12:30pm 15.4 12.4 9.1 66 3.2 SW 15 20 8 11 1023.7 1023.7 0.2
08/12:00pm 16.3 15.3 9.0 62 3.7 NNW 4 9 2 5 1024.0 1024.0 0.0
08/11:30am 17.2 15.7 8.6 57 4.4 NNW 6 9 3 5 1024.4 1024.4 0.0
08/11:00am 16.2 14.1 8.2 59 4.0 NNE 9 11 5 6 1024.6 1024.6 0.0
08/10:30am 15.5 13.7 9.4 67 3.2 N 9 11 5 6 1024.8 1024.8 0.0
08/10:00am 14.8 13.8 10.2 74 2.4 NNE 6 9 3 5 1024.9 1024.9 0.0
08/09:30am 13.6 12.3 10.0 79 1.9 NNE 7 9 4 5 1024.6 1024.6 0.0
08/09:00am 11.9 10.3 10.3 90 0.8 NNE 9 11 5 6 1024.5 1024.5 4.0
08/08:30am 11.2 10.0 10.3 94 0.5 NE 7 9 4 5 1024.4 1024.4 4.0
08/08:00am 10.4 8.7 9.8 96 0.3 ENE 9 9 5 5 1024.0 1024.0 4.0
08/07:30am 10.5 8.8 9.9 96 0.3 NNE 9 11 5 6 1023.5 1023.5 4.0
08/07:00am 10.1 8.3 9.5 96 0.3 N 9 13 5 7 1023.2 1023.2 4.0
08/06:30am 10.2 8.8 9.4 95 0.4 NNE 7 7 4 4 1023.0 1023.0 4.0
08/06:00am 10.8 9.5 10.0 95 0.4 NNE 7 9 4 5 1022.8 1022.8 4.0
08/05:30am 11.3 9.8 10.4 94 0.5 NNE 9 11 5 6 1022.8 1022.8 4.0
08/05:00am 11.5 10.0 10.6 94 0.5 NE 9 11 5 6 1022.7 1022.7 4.0
08/04:30am 11.9 10.2 11.1 95 0.4 NNE 11 13 6 7 1022.6 1022.6 4.0
08/04:00am 12.4 11.8 11.6 95 0.4 W 6 11 3 6 1022.9 1022.9 4.0
08/03:30am 12.3 11.5 11.7 96 0.3 N 7 13 4 7 1022.7 1022.7 4.0
08/03:00am 12.3 11.5 11.7 96 0.3 N 7 9 4 5 1022.6 1022.6 4.0
08/02:30am 12.2 11.9 11.6 96 0.3 N 4 7 2 4 1022.3 1022.3 4.0
08/02:00am 12.3 12.5 11.7 96 0.3 ENE 2 7 1 4 1022.4 1022.4 4.0
08/01:30am 12.5 10.9 11.6 94 0.5 SSE 11 13 6 7 1022.3 1022.3 4.0
08/01:00am 12.6 10.8 12.0 96 0.3 SSE 13 17 7 9 1022.4 1022.4 4.0
08/12:30am 13.0 11.3 12.4 96 0.3 S 13 17 7 9 1022.4 1022.4 4.0
08/12:20am 13.0 11.3 12.4 96 0.3 SSW 13 19 7 10 1022.3 1022.3 4.0
08/12:00am 13.0 9.6 12.4 96 0.3 S 22 28 12 15 1022.4 1022.4 3.8
 
Date/Time
WST
Temp
°C
App
Temp
°C
Dew
Point
°C
Rel
Hum
%
Delta-T
°C
Wind Press
QNH
hPa
Press
MSL
hPa
Rain since
9am
mm
Dir  Spd
km/h
Gust
km/h
Spd
kts
Gust
kts
07/11:30pm 12.3 10.4 11.7 96 0.3 N 13 37 7 20 1022.0 1022.0 2.6
07/11:23pm 12.1 11.2 11.3 95 0.4 NNE 7 9 4 5 1022.2 1022.2 2.0
07/11:00pm 12.1 11.2 11.3 95 0.4 NW 7 17 4 9 1022.3 1022.3 1.8
07/10:30pm 12.0 10.7 11.4 96 0.3 NNE 9 11 5 6 1022.1 1022.1 1.8
07/10:00pm 11.8 10.1 11.2 96 0.3 NNE 11 15 6 8 1022.1 1022.1 1.8
07/09:30pm 11.3 9.8 10.5 95 0.4 NE 9 11 5 6 1022.3 1022.3 1.8
07/09:00pm 11.8 10.4 11.0 95 0.4 NNE 9 11 5 6 1022.2 1022.2 1.8
07/08:30pm 12.0 10.7 11.1 94 0.5 N 9 11 5 6 1022.2 1022.2 1.8
07/08:00pm 12.5 11.3 11.6 94 0.5 NNW 9 13 5 7 1022.1 1022.1 1.8
07/07:30pm 12.7 11.4 11.4 92 0.7 NNW 9 11 5 6 1022.0 1022.0 1.8
07/07:00pm 13.8 11.2 12.0 89 1.0 WNW 17 28 9 15 1022.0 1022.0 1.8
07/06:30pm 13.7 11.8 11.8 88 1.0 W 13 22 7 12 1021.8 1021.8 1.4
07/06:00pm 13.7 11.4 11.9 89 1.0 NW 15 20 8 11 1021.7 1021.7 0.8
07/05:30pm 13.5 12.6 11.4 87 1.1 N 7 9 4 5 1021.5 1021.5 0.6
07/05:00pm 14.5 13.3 11.5 82 1.6 WNW 9 13 5 7 1021.6 1021.6 0.6
07/04:30pm 15.7 13.4 11.7 77 2.2 W 15 22 8 12 1021.8 1021.8 0.6
07/04:00pm 15.2 13.5 11.2 77 2.1 W 11 15 6 8 1021.9 1021.9 0.6
07/03:30pm 15.0 12.9 12.5 85 1.4 W 15 30 8 16 1021.9 1021.9 0.6
07/03:08pm 14.0 9.2 11.7 86 1.2 NW 28 35 15 19 1022.0 1022.0 0.4
07/03:00pm 15.8 12.4 11.2 74 2.5 NW 20 32 11 17 1021.7 1021.7 0.4
07/02:30pm 16.7 13.2 11.0 69 3.1 WNW 20 32 11 17 1021.6 1021.6 0.4
07/02:00pm 16.0 14.0 11.4 74 2.5 NW 13 19 7 10 1021.6 1021.6 0.4
07/01:30pm 14.6 11.4 11.2 80 1.8 WNW 19 30 10 16 1021.9 1021.9 0.2
07/01:00pm 16.8 12.5 9.5 62 3.8 WNW 22 30 12 16 1021.9 1021.9 0.2
07/12:30pm 17.1 13.1 9.0 59 4.2 W 20 28 11 15 1022.2 1022.2 0.2
07/12:00pm 15.4 11.9 11.0 75 2.3 WSW 20 26 11 14 1022.6 1022.6 0.2
07/11:30am 16.7 13.7 9.1 61 3.9 WNW 15 24 8 13 1023.0 1023.0 0.0
07/11:00am 15.5 13.5 11.5 77 2.1 NW 13 26 7 14 1023.3 1023.3 0.0
07/10:30am 15.6 14.7 10.6 72 2.6 NNE 6 11 3 6 1023.3 1023.3 0.0
07/10:00am 15.1 13.7 10.9 76 2.2 NE 9 11 5 6 1023.4 1023.4 0.0
07/09:30am 14.0 12.7 11.2 83 1.5 NNE 9 15 5 8 1023.3 1023.3 0.0
07/09:00am 13.7 11.9 10.7 82 1.6 NE 11 13 6 7 1023.0 1023.0 3.8
07/08:30am 13.2 12.2 10.4 83 1.5 ENE 6 11 3 6 1022.9 1022.9 3.8
07/08:00am 12.2 9.7 9.6 84 1.3 N 13 15 7 8 1022.6 1022.6 3.8
07/07:30am 12.4 10.6 9.6 83 1.4 WNW 9 13 5 7 1022.3 1022.3 3.8
07/07:00am 12.3 10.8 9.3 82 1.5 NW 7 9 4 5 1021.8 1021.8 3.8
07/06:30am 13.1 12.2 9.2 77 2.0 W 4 7 2 4 1021.4 1021.4 3.8
07/06:00am 14.3 11.2 8.9 70 2.7 WNW 15 24 8 13 1021.1 1021.1 3.8
07/05:30am 13.7 11.2 9.7 77 2.1 NW 13 17 7 9 1021.0 1021.0 3.8
07/05:00am 13.4 11.4 10.2 81 1.7 NW 11 13 6 7 1020.9 1020.9 3.8
07/04:30am 11.3 10.1 9.4 88 1.0 NW 6 9 3 5 1020.7 1020.7 3.8
07/04:00am 10.6 8.9 8.4 86 1.1 W 7 11 4 6 1020.6 1020.6 3.8
07/03:30am 12.2 10.7 8.3 77 1.9 W 6 7 3 4 1020.7 1020.7 3.8
07/03:00am 14.0 12.0 8.8 71 2.6 NW 9 13 5 7 1020.5 1020.5 3.8
07/02:30am 14.1 8.6 9.1 72 2.5 NW 28 35 15 19 1020.5 1020.5 3.8
07/02:18am 14.5 9.4 9.3 71 2.7 WNW 26 41 14 22 1020.6 1020.6 3.8
07/02:00am 14.4 12.3 8.4 67 3.0 NW 9 15 5 8 1020.5 1020.5 3.8
07/01:30am 14.1 11.5 7.6 65 3.2 W 11 15 6 8 1020.3 1020.3 3.8
07/01:00am 15.2 12.5 8.9 66 3.2 W 13 20 7 11 1020.2 1020.2 3.8
07/12:30am 15.0 12.0 9.1 68 3.0 W 15 20 8 11 1020.3 1020.3 3.8
07/12:00am 15.1 12.5 7.6 61 3.7 WNW 11 17 6 9 1020.3 1020.3 3.8
 
Date/Time
WST
Temp
°C
App
Temp
°C
Dew
Point
°C
Rel
Hum
%
Delta-T
°C
Wind Press
QNH
hPa
Press
MSL
hPa
Rain since
9am
mm
Dir  Spd
km/h
Gust
km/h
Spd
kts
Gust
kts
06/11:30pm 15.0 12.2 8.7 66 3.2 W 13 17 7 9 1020.5 1020.5 3.8
06/11:00pm 15.0 12.3 8.9 67 3.1 WNW 13 19 7 10 1020.4 1020.4 3.8
06/10:30pm 15.5 11.9 8.5 63 3.6 W 17 28 9 15 1020.3 1020.3 3.8
06/10:00pm 15.8 11.8 9.0 64 3.5 W 20 30 11 16 1020.2 1020.2 3.8
06/09:30pm 15.3 12.3 9.4 68 3.0 WNW 15 26 8 14 1020.2 1020.2 3.8
06/09:00pm 14.9 11.9 9.1 68 3.0 WNW 15 24 8 13 1020.1 1020.1 3.8
06/08:30pm 14.9 11.9 9.3 69 2.9 W 15 24 8 13 1020.0 1020.0 3.8
06/08:00pm 14.7 12.5 10.9 78 2.0 WNW 13 19 7 10 1019.9 1019.9 3.8
06/07:30pm 14.8 12.8 11.6 81 1.7 WNW 13 17 7 9 1019.7 1019.7 3.8
06/07:00pm 15.2 11.4 11.0 76 2.2 WNW 22 33 12 18 1019.4 1019.4 3.8
06/06:30pm 14.9 12.1 11.5 80 1.8 WNW 17 26 9 14 1019.2 1019.2 3.8
06/06:15pm 14.9 11.3 11.9 82 1.6 WNW 22 32 12 17 1018.9 1018.9 3.8
06/06:00pm 14.7 12.7 12.7 88 1.1 W 15 20 8 11 1018.8 1018.8 3.8
06/05:30pm 14.2 11.7 12.4 89 1.0 NW 17 24 9 13 1018.4 1018.4 3.2
06/05:23pm 14.3 11.2 12.3 88 1.1 WNW 20 33 11 18 1018.4 1018.4 3.2
06/05:10pm 15.1 10.4 11.9 81 1.7 WNW 28 46 15 25 1018.3 1018.3 3.0
06/05:00pm 14.8 11.0 12.3 85 1.4 NW 24 32 13 17 1018.1 1018.1 3.0
06/04:43pm 14.5 10.3 12.5 88 1.1 WNW 26 37 14 20 1018.1 1018.1 3.0
06/04:30pm 14.8 11.5 12.7 87 1.2 WNW 22 33 12 18 1018.0 1018.0 2.8
06/04:11pm 16.2 13.0 12.0 76 2.3 WNW 20 30 11 16 1017.6 1017.6 1.4
06/04:00pm 16.3 12.4 12.1 76 2.3 WNW 24 37 13 20 1017.6 1017.6 1.4
06/03:50pm 16.1 11.4 12.1 77 2.2 WNW 28 46 15 25 1017.6 1017.6 1.4
06/03:30pm 15.6 13.0 13.1 85 1.4 NW 19 26 10 14 1017.4 1017.4 1.4
06/03:10pm 15.3 10.8 12.6 84 1.5 WNW 28 46 15 25 1017.5 1017.5 1.4
06/03:00pm 15.7 12.3 12.6 82 1.7 WNW 22 32 12 17 1017.2 1017.2 1.4
06/02:41pm 14.8 10.4 12.8 88 1.1 WNW 28 41 15 22 1017.2 1017.2 1.4
06/02:35pm 15.0 10.5 12.7 86 1.3 WNW 28 52 15 28 1017.1 1017.1 1.2
06/02:30pm 15.4 11.9 12.2 81 1.7 WNW 22 30 12 16 1016.9 1016.9 0.8
06/02:14pm 16.0 12.2 12.4 79 2.0 W 24 41 13 22 1016.9 1016.9 0.0
06/02:00pm 17.3 13.6 11.6 69 3.1 W 22 33 12 18 1016.8 1016.8 0.0
06/01:54pm 18.3 12.4 9.1 55 4.8 WNW 30 46 16 25 1016.7 1016.7 0.0
06/01:48pm 18.9 11.6 8.8 52 5.3 NW 37 57 20 31 1016.8 1016.8 0.0
06/01:30pm 19.0 11.7 8.6 51 5.4 NW 37 50 20 27 1016.7 1016.7 0.0
06/01:00pm 18.9 11.4 9.4 54 5.0 NW 39 61 21 33 1016.9 1016.9 0.0
06/12:30pm 18.7 11.7 10.0 57 4.6 NW 37 56 20 30 1017.0 1017.0 0.0
06/12:25pm 18.7 12.2 10.3 58 4.5 NW 35 56 19 30 1017.1 1017.1 0.0
06/12:00pm 18.3 10.8 9.4 56 4.7 NW 39 52 21 28 1017.1 1017.1 0.0
06/11:30am 18.4 12.2 9.2 55 4.8 NW 32 50 17 27 1017.3 1017.3 0.0
06/11:07am 17.8 11.4 9.2 57 4.5 NW 33 52 18 28 1017.3 1017.3 0.0
06/11:00am 18.5 11.9 8.7 53 5.1 NW 33 43 18 23 1017.2 1017.2 0.0
06/10:44am 18.0 11.2 7.7 51 5.2 NW 33 56 18 30 1017.4 1017.4 0.0
06/10:30am 17.2 13.5 12.7 75 2.5 NNW 24 39 13 21 1017.4 1017.4 0.0
06/10:27am 17.1 14.1 12.6 75 2.5 NNW 20 39 11 21 1017.4 1017.4 0.0
06/10:00am 15.6 13.2 12.7 83 1.6 N 17 20 9 11 1017.4 1017.4 0.0
06/09:30am 14.4 11.2 11.9 85 1.3 N 20 26 11 14 1017.3 1017.3 0.0
06/09:00am 13.9 10.5 12.5 91 0.8 NNE 22 30 12 16 1017.1 1017.1 2.8
06/08:30am 12.9 10.3 12.1 95 0.4 NNE 17 20 9 11 1016.6 1016.6 2.8
06/08:04am 12.8 9.8 12.0 95 0.4 NNE 19 26 10 14 1016.4 1016.4 2.6
06/08:00am 12.8 9.8 12.0 95 0.4 NE 19 26 10 14 1016.2 1016.2 2.4
06/07:30am 12.7 9.7 12.1 96 0.3 NNE 19 20 10 11 1016.0 1016.0 2.4
06/07:00am 12.9 10.7 12.1 95 0.4 N 15 28 8 15 1015.8 1015.8 2.4
06/06:52am 13.0 10.8 12.2 95 0.4 NNE 15 20 8 11 1015.7 1015.7 2.4
06/06:45am 12.9 11.1 12.1 95 0.4 NNE 13 17 7 9 1015.6 1015.6 2.2
06/06:30am 12.9 10.7 12.1 95 0.4 N 15 20 8 11 1015.4 1015.4 2.2
06/06:00am 12.7 11.2 11.8 94 0.5 NNE 11 13 6 7 1015.0 1015.0 2.0
06/05:30am 13.5 11.1 12.6 94 0.5 N 17 20 9 11 1014.8 1014.8 2.0
06/05:00am 13.2 11.1 12.4 95 0.4 NNE 15 17 8 9 1014.7 1014.7 1.8
06/04:30am 13.4 11.7 12.5 94 0.5 N 13 15 7 8 1014.8 1014.8 1.8
06/04:00am 14.0 12.0 12.6 91 0.8 N 15 19 8 10 1014.9 1014.9 1.6
06/03:59am 14.0 12.0 12.6 91 0.8 N 15 19 8 10 1014.9 1014.9 1.6
06/03:30am 14.3 13.0 12.5 89 1.0 NNW 11 13 6 7 1014.8 1014.8 1.0
06/03:00am 14.4 12.5 13.1 92 0.7 NNE 15 17 8 9 1014.8 1014.8 0.8
06/02:30am 14.5 13.5 13.5 94 0.6 N 11 13 6 7 1014.9 1014.9 0.8
06/02:00am 14.2 13.1 13.2 94 0.6 NNW 11 15 6 8 1014.8 1014.8 0.8
06/01:30am 14.5 13.9 13.5 94 0.6 NNE 9 13 5 7 1014.4 1014.4 0.8
06/01:00am 14.6 13.7 13.6 94 0.6 NNE 11 11 6 6 1014.5 1014.5 0.8
06/12:30am 14.7 14.2 13.7 94 0.6 NNE 9 11 5 6 1015.0 1015.0 0.8
06/12:00am 14.9 14.1 13.9 94 0.6 NE 11 13 6 7 1015.2 1015.2 0.8
 
Date/Time
WST
Temp
°C
App
Temp
°C
Dew
Point
°C
Rel
Hum
%
Delta-T
°C
Wind Press
QNH
hPa
Press
MSL
hPa
Rain since
9am
mm
Dir  Spd
km/h
Gust
km/h
Spd
kts
Gust
kts
05/11:30pm 14.8 14.2 13.5 92 0.7 ESE 9 11 5 6 1015.5 1015.5 0.8

Other formats

Comma delimited format used in spreadsheet applications
http://www.bom.gov.au/fwo/IDW60801/IDW60801.94610.axf

JavaScript Object Notation format (JSON) in row-major order
http://www.bom.gov.au/fwo/IDW60801/IDW60801.94610.json

Data quality

Most of these data are generated automatically and are frequently updated. Quality checks on data are not normally performed. It is possible for incorrect values to appear. Refer to information at About Latest Weather Observations and please check the disclaimer before using these data.